Terminal Aerodrome Forecast
Issued by NWS

Home | Current Version | Previous Version | Text Only | Print | Product List | Glossary Off
Versions: 1 2 3 4 5 6 7 8 9 10 11 12 13 14 15 16 17 18

000
FTUS43 KICT 240520
TAFRSL
TAF
KRSL 240520Z 2406/2506 13006KT P6SM FEW250
     FM241100 21004KT P6SM SCT200
     FM241500 31005KT P6SM VCSH BKN140
     FM241700 32009KT 6SM -SHRA OVC100
     FM242100 34010KT 6SM -SHRA OVC020
     FM250000 34010KT P6SM OVC015=

USA.gov is the U.S. government's official web portal to all federal, state and local government web resources and services.